createdAt,value
2019-03-21T00:01:11.104Z,2.51
2019-03-21T00:04:19.952Z,2.32
2019-03-21T00:07:28.748Z,2.23
2019-03-21T00:11:50.254Z,2.13
2019-03-21T00:15:12.127Z,2.39
2019-03-21T00:18:21.292Z,2.25
2019-03-21T00:21:30.644Z,2.14
2019-03-21T00:24:43.143Z,2.07
2019-03-21T00:27:52.614Z,2.22
2019-03-21T00:31:01.631Z,2.21
2019-03-21T00:34:10.788Z,2.30
2019-03-21T00:37:19.745Z,2.13
2019-03-21T00:40:31.969Z,2.35
2019-03-21T00:43:43.001Z,2.30
2019-03-21T00:46:52.048Z,2.29
2019-03-21T00:50:00.782Z,2.28
2019-03-21T00:53:11.781Z,2.02
2019-03-21T00:56:20.677Z,2.09
2019-03-21T00:59:30.049Z,2.01
2019-03-21T01:02:39.763Z,2.06
2019-03-21T01:05:49.301Z,2.25
2019-03-21T01:09:00.255Z,2.33
2019-03-21T01:12:10.813Z,2.34
2019-03-21T01:15:19.991Z,2.01
2019-03-21T01:18:29.243Z,1.87
2019-03-21T01:21:41.117Z,1.91
2019-03-21T01:24:49.919Z,1.99
2019-03-21T01:28:01.032Z,2.06
2019-03-21T01:31:10.268Z,2.07
2019-03-21T01:34:19.073Z,1.92
2019-03-21T01:37:27.962Z,1.75
2019-03-21T01:40:39.107Z,1.95
2019-03-21T01:43:49.675Z,2.11
2019-03-21T01:46:59.228Z,1.87
2019-03-21T01:50:09.468Z,1.65
2019-03-21T01:53:18.931Z,1.76
2019-03-21T01:56:30.523Z,1.88
2019-03-21T01:59:41.829Z,1.95
2019-03-21T02:02:53.150Z,2.06
2019-03-21T02:06:01.853Z,2.04
2019-03-21T02:09:11.891Z,2.03
2019-03-21T02:12:20.849Z,1.87
2019-03-21T02:15:34.185Z,1.95
2019-03-21T02:18:44.812Z,1.96
2019-03-21T02:21:52.728Z,2.03
2019-03-21T02:25:00.417Z,2.08
2019-03-21T02:28:08.463Z,1.99
2019-03-21T02:31:16.121Z,1.94
2019-03-21T02:34:23.814Z,1.97
2019-03-21T02:37:31.443Z,1.79
2019-03-21T02:40:39.563Z,1.74
2019-03-21T02:43:48.068Z,1.83
2019-03-21T02:46:55.767Z,1.77
2019-03-21T02:50:03.414Z,1.89
2019-03-21T02:53:11.154Z,1.77
2019-03-21T02:56:22.583Z,1.74
2019-03-21T02:59:30.288Z,1.56
2019-03-21T03:02:40.973Z,1.63
2019-03-21T03:05:48.627Z,1.55
2019-03-21T03:08:56.461Z,1.46
2019-03-21T03:12:06.109Z,1.50
2019-03-21T03:15:22.944Z,1.41
2019-03-21T03:18:31.268Z,1.32
2019-03-21T03:21:38.850Z,1.39
2019-03-21T03:24:46.656Z,1.35
2019-03-21T03:27:56.677Z,1.28
2019-03-21T03:31:04.534Z,1.37
2019-03-21T03:34:12.220Z,1.35
2019-03-21T03:37:19.864Z,1.33
2019-03-21T03:40:32.295Z,1.43
2019-03-21T03:43:40.230Z,1.35
2019-03-21T03:46:47.876Z,1.16
2019-03-21T03:49:55.572Z,1.30
2019-03-21T03:53:03.133Z,1.30
2019-03-21T03:56:11.775Z,1.30
2019-03-21T03:59:20.659Z,1.26
2019-03-21T04:02:28.326Z,1.23
2019-03-21T04:05:39.908Z,1.26
2019-03-21T04:08:47.594Z,1.25
2019-03-21T04:11:55.284Z,1.21
2019-03-21T04:15:02.951Z,1.30
2019-03-21T04:18:10.711Z,1.17
2019-03-21T04:21:18.484Z,1.30
2019-03-21T04:24:26.112Z,1.22
2019-03-21T04:27:35.318Z,1.26
2019-03-21T04:30:43.273Z,1.24
2019-03-21T04:33:51.524Z,1.27
2019-03-21T04:36:59.115Z,1.23
2019-03-21T04:40:07.654Z,1.20
2019-03-21T04:43:15.629Z,1.36
2019-03-21T04:46:23.207Z,1.37
2019-03-21T04:49:30.938Z,1.21
2019-03-21T04:52:38.605Z,1.39
2019-03-21T04:56:05.197Z,1.44
2019-03-21T04:59:12.887Z,1.35
2019-03-21T05:02:21.011Z,1.33
2019-03-21T05:05:29.763Z,1.31
2019-03-21T05:08:37.428Z,1.33
2019-03-21T05:11:45.075Z,1.40
2019-03-21T05:14:52.654Z,1.28
2019-03-21T05:18:04.949Z,1.30
2019-03-21T05:21:14.264Z,1.28
2019-03-21T05:24:21.873Z,1.25
2019-03-21T05:27:29.585Z,1.35
2019-03-21T05:30:42.900Z,1.42
2019-03-21T05:33:50.466Z,1.52
2019-03-21T05:36:58.086Z,1.44
2019-03-21T05:40:07.046Z,1.47
2019-03-21T05:43:19.458Z,1.45
2019-03-21T05:46:28.860Z,1.48
2019-03-21T05:49:36.909Z,1.54
2019-03-21T05:52:44.796Z,1.66
2019-03-21T05:55:52.611Z,1.64
2019-03-21T05:59:00.170Z,1.61
2019-03-21T06:02:07.867Z,1.61
2019-03-21T06:05:16.734Z,1.75
2019-03-21T06:08:29.617Z,1.81
2019-03-21T06:11:39.583Z,1.85
2019-03-21T06:14:53.556Z,1.95
2019-03-21T06:18:55.199Z,2.01
2019-03-21T06:22:55.989Z,2.09
2019-03-21T06:26:51.447Z,2.20
2019-03-21T06:29:59.486Z,2.29
2019-03-21T06:33:07.155Z,2.43
2019-03-21T06:36:15.905Z,2.50
2019-03-21T06:39:27.657Z,2.61
2019-03-21T06:42:35.366Z,2.78
2019-03-21T06:45:48.198Z,2.99
2019-03-21T06:48:54.085Z,3.16
2019-03-21T06:52:01.701Z,3.43
2019-03-21T06:55:09.452Z,3.45
2019-03-21T06:58:18.097Z,3.61
2019-03-21T07:01:25.722Z,3.74
2019-03-21T07:04:33.413Z,4.00
2019-03-21T07:07:41.288Z,4.09
2019-03-21T07:10:49.133Z,4.28
2019-03-21T07:13:56.985Z,4.43
2019-03-21T07:17:05.852Z,4.40
2019-03-21T07:20:14.384Z,4.68
2019-03-21T07:23:22.026Z,4.72
2019-03-21T07:26:33.021Z,4.94
2019-03-21T07:29:40.714Z,5.05
2019-03-21T07:32:48.482Z,5.14
2019-03-21T07:35:56.136Z,5.21
2019-03-21T07:39:04.201Z,5.51
2019-03-21T07:42:11.796Z,5.59
2019-03-21T07:45:19.588Z,5.68
2019-03-21T07:48:28.863Z,6.13
2019-03-21T07:51:39.612Z,6.15
2019-03-21T07:54:47.408Z,6.37
2019-03-21T07:57:56.167Z,6.43
2019-03-21T08:01:03.870Z,6.55
2019-03-21T08:04:11.542Z,6.76
2019-03-21T08:07:19.113Z,7.00
2019-03-21T08:10:28.471Z,7.16
2019-03-21T08:13:36.162Z,7.28
2019-03-21T08:16:43.936Z,7.48
2019-03-21T08:19:51.611Z,7.34
2019-03-21T08:22:59.461Z,7.68
2019-03-21T08:26:07.129Z,7.50
2019-03-21T08:29:14.835Z,7.53
2019-03-21T08:32:23.203Z,7.74
2019-03-21T08:35:30.877Z,8.08
2019-03-21T08:38:38.670Z,8.14
2019-03-21T08:41:46.346Z,8.23
2019-03-21T08:44:53.979Z,8.37
2019-03-21T08:48:01.666Z,8.57
2019-03-21T08:51:09.336Z,8.65
2019-03-21T08:54:17.159Z,8.82
2019-03-21T08:57:24.941Z,8.87
2019-03-21T09:00:34.513Z,9.09
2019-03-21T09:03:41.875Z,9.15
2019-03-21T09:06:49.644Z,9.44
2019-03-21T09:09:57.288Z,9.51
2019-03-21T09:13:05.231Z,9.52
2019-03-21T09:16:12.879Z,9.69
2019-03-21T09:19:20.583Z,9.78
2019-03-21T09:22:28.246Z,10.06
2019-03-21T09:25:36.901Z,10.28
2019-03-21T09:28:44.613Z,10.08
2019-03-21T09:31:52.336Z,10.42
2019-03-21T09:35:00.076Z,10.24
2019-03-21T09:38:07.893Z,10.49
2019-03-21T09:41:15.635Z,10.52
2019-03-21T09:44:29.992Z,10.64
2019-03-21T09:47:38.291Z,10.75
2019-03-21T09:50:46.145Z,11.13
2019-03-21T09:53:53.868Z,11.26
2019-03-21T09:57:02.392Z,11.33
2019-03-21T10:00:10.231Z,11.43
2019-03-21T10:03:19.051Z,11.29
2019-03-21T10:06:27.159Z,11.51
2019-03-21T10:09:34.995Z,11.44
2019-03-21T10:12:42.629Z,11.55
2019-03-21T10:15:52.572Z,11.54
2019-03-21T10:19:00.327Z,11.42
2019-03-21T10:22:08.012Z,11.63
2019-03-21T10:25:15.844Z,11.87
2019-03-21T10:28:23.567Z,12.36
2019-03-21T10:31:31.170Z,12.06
2019-03-21T10:34:38.821Z,12.05
2019-03-21T10:37:46.518Z,12.33
2019-03-21T10:40:54.248Z,12.18
2019-03-21T10:44:02.029Z,12.14
2019-03-21T10:47:10.100Z,12.50
2019-03-21T10:50:28.171Z,12.10
2019-03-21T10:53:35.923Z,12.24
2019-03-21T10:56:43.728Z,12.44
2019-03-21T10:59:51.631Z,12.66
2019-03-21T11:02:59.376Z,13.05
2019-03-21T11:06:08.190Z,12.90
2019-03-21T11:09:15.853Z,12.67
2019-03-21T11:12:23.547Z,13.02
2019-03-21T11:15:31.336Z,12.96
2019-03-21T11:18:40.203Z,13.13
2019-03-21T11:21:47.991Z,12.78
2019-03-21T11:24:55.827Z,12.85
2019-03-21T11:28:03.499Z,13.24
2019-03-21T11:31:11.217Z,13.01
2019-03-21T11:34:20.407Z,13.27
2019-03-21T11:37:28.173Z,13.42
2019-03-21T11:40:35.971Z,13.13
2019-03-21T11:43:43.630Z,13.61
2019-03-21T11:46:51.350Z,13.60
2019-03-21T11:49:59.050Z,13.53
2019-03-21T11:53:06.771Z,13.45
2019-03-21T11:56:19.040Z,13.55
2019-03-21T11:59:41.263Z,13.37
2019-03-21T12:02:36.653Z,13.80
2019-03-21T12:05:44.326Z,14.00
2019-03-21T12:08:52.118Z,13.85
2019-03-21T12:11:59.779Z,13.95
2019-03-21T12:15:09.591Z,13.84
2019-03-21T12:18:17.327Z,13.63
2019-03-21T12:21:31.217Z,14.39
2019-03-21T12:24:39.101Z,14.09
2019-03-21T12:27:46.973Z,14.13
2019-03-21T12:30:54.744Z,14.35
2019-03-21T12:34:02.546Z,14.16
2019-03-21T12:37:11.644Z,14.42
2019-03-21T12:40:19.390Z,14.22
2019-03-21T12:43:27.176Z,14.75
2019-03-21T12:46:35.047Z,14.74
2019-03-21T12:49:42.726Z,15.00
2019-03-21T12:52:50.639Z,14.95
2019-03-21T12:56:00.522Z,15.22
2019-03-21T12:59:08.313Z,14.65
2019-03-21T13:02:16.044Z,14.59
2019-03-21T13:05:30.164Z,14.91
2019-03-21T13:08:37.852Z,14.05
2019-03-21T13:11:45.743Z,14.70
2019-03-21T13:14:53.456Z,14.86
2019-03-21T13:18:01.685Z,14.20
2019-03-21T13:21:09.411Z,13.74
2019-03-21T13:24:19.595Z,14.43
2019-03-21T13:27:26.843Z,15.37
2019-03-21T13:30:37.884Z,15.38
2019-03-21T13:33:45.756Z,15.65
2019-03-21T13:36:54.859Z,15.29
2019-03-21T13:40:05.118Z,16.14
2019-03-21T13:43:13.133Z,15.94
2019-03-21T13:46:20.939Z,15.55
2019-03-21T13:49:29.781Z,15.95
2019-03-21T13:52:37.577Z,16.34
2019-03-21T13:55:45.524Z,16.36
2019-03-21T13:58:53.444Z,16.60
2019-03-21T14:02:02.705Z,16.24
2019-03-21T14:05:10.665Z,15.28
2019-03-21T14:08:20.563Z,16.32
2019-03-21T14:11:28.266Z,16.43
2019-03-21T14:14:36.112Z,16.26
2019-03-21T14:17:43.940Z,16.06
2019-03-21T14:20:52.763Z,16.00
2019-03-21T14:24:01.034Z,15.98
2019-03-21T14:27:09.836Z,16.57
2019-03-21T14:30:18.431Z,16.31
2019-03-21T14:33:26.270Z,15.96
2019-03-21T14:36:34.217Z,16.34
2019-03-21T14:39:42.036Z,16.39
2019-03-21T14:42:49.854Z,16.33
2019-03-21T14:45:57.650Z,16.37
2019-03-21T14:49:05.395Z,15.96
2019-03-21T14:52:13.092Z,16.10
2019-03-21T14:55:20.933Z,15.79
2019-03-21T14:58:29.209Z,16.05
2019-03-21T15:01:40.864Z,15.84
2019-03-21T15:04:48.894Z,15.99
2019-03-21T15:07:56.633Z,15.52
2019-03-21T15:11:17.140Z,15.78
2019-03-21T15:14:25.468Z,15.72
2019-03-21T15:17:33.391Z,15.86
2019-03-21T15:20:43.086Z,15.92
2019-03-21T15:23:59.348Z,16.28
2019-03-21T15:27:02.421Z,16.34
2019-03-21T15:30:13.952Z,16.15
2019-03-21T15:33:21.910Z,16.21
2019-03-21T15:36:29.680Z,15.95
2019-03-21T15:39:37.461Z,16.13
2019-03-21T15:42:47.338Z,16.12
2019-03-21T15:45:55.524Z,16.27
2019-03-21T15:49:06.101Z,15.81
2019-03-21T15:52:14.114Z,16.07
2019-03-21T15:55:21.884Z,15.86
2019-03-21T15:58:29.618Z,15.98
2019-03-21T16:01:37.493Z,16.09
2019-03-21T16:04:48.206Z,15.65
2019-03-21T16:07:55.955Z,15.62
2019-03-21T16:11:04.733Z,15.37
2019-03-21T16:14:13.430Z,15.44
2019-03-21T16:17:21.092Z,15.36
2019-03-21T16:20:29.492Z,15.24
2019-03-21T16:23:37.098Z,15.08
2019-03-21T16:26:44.833Z,14.98
2019-03-21T16:29:55.559Z,14.93
2019-03-21T16:33:03.502Z,14.60
2019-03-21T16:36:14.385Z,14.64
2019-03-21T16:39:22.102Z,14.65
2019-03-21T16:42:29.956Z,14.55
2019-03-21T16:45:37.774Z,14.39
2019-03-21T16:48:47.496Z,14.13
2019-03-21T16:51:57.914Z,13.84
2019-03-21T16:55:08.183Z,14.01
2019-03-21T16:58:18.896Z,14.09
2019-03-21T17:01:26.817Z,14.27
2019-03-21T17:04:34.744Z,13.92
2019-03-21T17:07:42.396Z,14.01
2019-03-21T17:10:50.211Z,13.69
2019-03-21T17:13:57.979Z,13.69
2019-03-21T17:17:11.384Z,12.76
2019-03-21T17:20:19.047Z,13.03
2019-03-21T17:23:26.818Z,13.08
2019-03-21T17:26:34.398Z,12.88
2019-03-21T17:29:42.116Z,12.26
2019-03-21T17:32:50.840Z,12.40
2019-03-21T17:35:58.873Z,12.76
2019-03-21T17:39:10.532Z,12.73
2019-03-21T17:42:21.179Z,12.50
2019-03-21T17:45:29.483Z,12.52
2019-03-21T17:48:37.289Z,12.46
2019-03-21T17:51:46.697Z,12.43
2019-03-21T17:54:57.631Z,12.16
2019-03-21T17:58:05.451Z,12.25
2019-03-21T18:01:13.504Z,11.57
2019-03-21T18:04:21.315Z,11.75
2019-03-21T18:07:29.175Z,11.78
2019-03-21T18:10:37.569Z,11.78
2019-03-21T18:13:46.366Z,11.31
2019-03-21T18:16:55.834Z,11.52
2019-03-21T18:20:06.203Z,11.03
2019-03-21T18:23:17.471Z,10.38
2019-03-21T18:26:26.651Z,10.44
2019-03-21T18:29:35.504Z,9.21
2019-03-21T18:32:44.530Z,9.76
2019-03-21T18:35:53.652Z,9.62
2019-03-21T18:39:03.769Z,10.32
2019-03-21T18:42:13.162Z,10.19
2019-03-21T18:45:23.045Z,9.44
2019-03-21T18:48:32.124Z,9.37
2019-03-21T18:51:41.474Z,10.06
2019-03-21T18:54:50.522Z,9.84
2019-03-21T18:58:00.365Z,9.65
2019-03-21T19:01:12.614Z,9.96
2019-03-21T19:04:22.135Z,9.62
2019-03-21T19:07:33.017Z,9.76
2019-03-21T19:10:44.752Z,8.91
2019-03-21T19:13:55.682Z,8.67
2019-03-21T19:17:07.416Z,8.11
2019-03-21T19:20:17.118Z,8.61
2019-03-21T19:23:26.265Z,7.30
2019-03-21T19:26:35.025Z,7.69
2019-03-21T19:29:47.274Z,7.56
2019-03-21T19:32:56.155Z,7.57
2019-03-21T19:36:08.657Z,7.91
2019-03-21T19:39:17.801Z,8.23
2019-03-21T19:42:26.813Z,8.43
2019-03-21T19:45:35.757Z,7.05
2019-03-21T19:48:50.482Z,7.51
2019-03-21T19:51:56.556Z,7.43
2019-03-21T19:55:05.740Z,7.60
2019-03-21T19:58:16.367Z,6.89
2019-03-21T20:01:25.357Z,8.00
2019-03-21T20:04:34.216Z,8.40
2019-03-21T20:07:43.688Z,8.22
2019-03-21T20:10:52.919Z,7.98
2019-03-21T20:14:03.982Z,7.78
2019-03-21T20:17:12.436Z,7.76
2019-03-21T20:20:21.392Z,8.38
2019-03-21T20:23:30.582Z,8.43
2019-03-21T20:26:39.243Z,7.89
2019-03-21T20:29:48.109Z,8.18
2019-03-21T20:32:57.405Z,8.32
2019-03-21T20:36:08.535Z,7.71
2019-03-21T20:39:17.824Z,7.99
2019-03-21T20:42:26.613Z,7.74
2019-03-21T20:45:35.578Z,7.74
2019-03-21T20:48:41.021Z,7.85
2019-03-21T20:51:54.293Z,7.86
2019-03-21T20:55:05.744Z,7.48
2019-03-21T20:58:14.847Z,7.51
2019-03-21T21:01:23.542Z,6.99
2019-03-21T21:04:31.320Z,6.67
2019-03-21T21:07:39.740Z,6.56
2019-03-21T21:10:47.617Z,6.67
2019-03-21T21:13:55.459Z,7.14
2019-03-21T21:17:05.402Z,7.11
2019-03-21T21:20:15.272Z,7.27
2019-03-21T21:23:23.122Z,7.54
2019-03-21T21:26:30.830Z,7.58
2019-03-21T21:29:38.873Z,7.87
2019-03-21T21:32:46.874Z,7.88
2019-03-21T21:35:54.855Z,7.60
2019-03-21T21:39:02.711Z,7.37
2019-03-21T21:42:11.141Z,7.47
2019-03-21T21:45:19.470Z,7.27
2019-03-21T21:48:27.203Z,7.14
2019-03-21T21:51:35.046Z,6.89
2019-03-21T21:54:42.659Z,6.87
2019-03-21T21:57:50.421Z,6.75
2019-03-21T22:01:03.911Z,7.11
2019-03-21T22:04:11.991Z,7.13
2019-03-21T22:07:21.145Z,7.14
2019-03-21T22:10:29.601Z,7.21
2019-03-21T22:13:40.099Z,7.45
2019-03-21T22:16:47.856Z,7.33
2019-03-21T22:19:55.765Z,7.39
2019-03-21T22:23:03.435Z,7.42
2019-03-21T22:26:11.268Z,7.28
2019-03-21T22:29:18.924Z,7.03
2019-03-21T22:32:26.656Z,7.24
2019-03-21T22:35:34.538Z,7.27
2019-03-21T22:38:43.336Z,7.29
2019-03-21T22:41:51.180Z,6.99
2019-03-21T22:44:59.256Z,6.36
2019-03-21T22:48:07.380Z,6.45
2019-03-21T22:51:15.086Z,6.48
2019-03-21T22:54:22.912Z,6.58
2019-03-21T22:57:30.549Z,6.45
2019-03-21T23:00:46.262Z,6.58
2019-03-21T23:03:54.570Z,6.35
2019-03-21T23:07:02.261Z,6.31
2019-03-21T23:10:11.383Z,6.51
2019-03-21T23:13:19.056Z,6.40
2019-03-21T23:16:26.786Z,6.46
2019-03-21T23:19:36.013Z,6.39
2019-03-21T23:22:43.712Z,6.10
2019-03-21T23:25:51.536Z,6.00
2019-03-21T23:28:59.302Z,6.42
2019-03-21T23:32:09.978Z,6.06
2019-03-21T23:35:17.941Z,6.20
2019-03-21T23:38:25.672Z,6.02
2019-03-21T23:41:33.466Z,6.09
2019-03-21T23:44:41.117Z,6.31
2019-03-21T23:47:49.230Z,6.11
2019-03-21T23:50:56.893Z,6.06
2019-03-21T23:54:05.160Z,6.09
2019-03-21T23:57:12.811Z,6.03
